Impacts METAR Board
IDs:

KMCO - Orlando Intl, FL, US

Updated at: 1900 UTC 12 Dec 2018
Potential Impact None Slight Moderate High
Time 12/07Z 12/08Z 12/09Z 12/10Z 12/11Z 12/12Z 12/13Z 12/14Z 12/15Z 12/16Z 12/17Z 12/18Z 12/19Z
Temp42 43 43 41 41 40 44 48 54 57 61 64 65
Dewpt40 40 39 38 38 38 40 42 44 43 43 44 44
Altim30.28 30.28 30.29 30.30 30.31 30.30 30.32 30.33 30.33 30.33 30.30 30.26 30.23
VIS10 10 10 10 10 10 10 10 10 10 10 10 10
CIG-- -- -- -- -- -- -- -- -- -- 300 300 --
CoverCLRCLRCLRCLRCLRFEWFEWSCTFEWSCTBKNBKNSCT
FltCatVFRVFRVFRVFRVFRVFRVFRVFRVFRVFRVFRVFRVFR
WX--------------------------
WDir103603403603503501036030030700
WSpd7 6 6 5 4 4 7 6 6 0 4 3 0
WGst-- -- -- -- -- -- -- -- -- -- -- -- --
Raw hourly METARs
KMCO 120653Z 01007KT 10SM CLR 06/04 A3028 RMK AO2 SLP252 T00560044
KMCO 120753Z 36006KT 10SM CLR 06/04 A3028 RMK AO2 SLP251 T00610044
KMCO 120853Z 34006KT 10SM CLR 06/04 A3029 RMK AO2 SLP255 T00610039 55006
KMCO 120953Z 36005KT 10SM CLR 05/03 A3030 RMK AO2 SLP258 T00500033
KMCO 121053Z 35004KT 10SM CLR 05/03 A3031 RMK AO2 SLP262 T00500033
KMCO 121153Z 35004KT 10SM FEW250 04/03 A3030 RMK AO2 SLP260 T00440033 10072 20044 50005
KMCO 121253Z 01007KT 10SM FEW250 07/04 A3032 RMK AO2 SLP267 T00670044
KMCO 121353Z 36006KT 10SM SCT300 09/06 A3033 RMK AO2 SLP270 T00890056
KMCO 121453Z 03006KT 10SM FEW300 12/07 A3033 RMK AO2 SLP270 T01220067 51010
KMCO 121553Z 00000KT 10SM SCT300 14/06 A3033 RMK AO2 SLP270 T01390061
KMCO 121653Z 03004KT 10SM BKN300 16/06 A3030 RMK AO2 SLP259 T01610061
KMCO 121753Z 07003KT 10SM BKN300 18/07 A3026 RMK AO2 SLP248 T01780067 10178 20039 58022
KMCO 121853Z 00000KT 10SM SCT300 18/07 A3023 RMK AO2 SLP235 T01830067



Page loaded:  19:29 UTC  |   11:29 AM Pacific  |   12:29 PM Mountain  |   01:29 PM Central  |   02:29 PM Eastern

 

ADVISORIES

FORECASTS

FORECASTS

OBSERVATIONS

USER TOOLS

ABOUT US